Warroad, Minnesota
Current Conditions -  °F | °C
As of 1:54 PM on Monday 22 Dec 2014 (Local Time) from KRRT Reporting Station
Haze Haze  
Wind Chill: 28°   Ceiling: 400
Heat Index: 34°   Visibility: 1.7mi
Dew Point: 30°   Wind: 7mph
Humidity: 87%   Direction: 70°ENE
Pressure: 29.62"   Gusts: NA
Location:  48.91°N, 95.32°W
Report Text: KRRT 221954Z AUTO 07006KT 1 3/4SM BR OVC004 01/M01 A2962 RMK AO2
Loading
Personal Weather Stations






























Interactive Weather Map New forecast layout! Learn more

10-Day Weather Forecast

Advertisements
Track Severe Weather on mobile